createdAt,value
2017-12-31T00:01:11.708Z,25.33
2017-12-31T00:03:39.546Z,28.70
2017-12-31T00:06:07.410Z,26.73
2017-12-31T00:08:35.273Z,44.23
2017-12-31T00:11:03.089Z,28.80
2017-12-31T00:13:30.944Z,31.57
2017-12-31T00:15:58.832Z,39.30
2017-12-31T00:18:26.767Z,24.33
2017-12-31T00:20:54.626Z,21.33
2017-12-31T00:23:22.826Z,36.13
2017-12-31T00:25:50.689Z,29.10
2017-12-31T00:28:18.529Z,31.33
2017-12-31T00:30:46.361Z,37.33
2017-12-31T00:33:14.266Z,21.87
2017-12-31T00:35:43.084Z,36.23
2017-12-31T00:38:11.023Z,14.90
2017-12-31T00:40:38.851Z,42.70
2017-12-31T00:43:06.714Z,37.97
2017-12-31T00:45:34.569Z,27.83
2017-12-31T00:48:02.403Z,29.47
2017-12-31T00:50:30.255Z,29.13
2017-12-31T00:52:58.084Z,15.27
2017-12-31T00:55:25.931Z,30.63
2017-12-31T00:57:53.769Z,30.83
2017-12-31T01:00:21.619Z,33.37
2017-12-31T01:02:49.536Z,11.97
2017-12-31T01:05:17.373Z,32.57
2017-12-31T01:07:45.221Z,22.90
2017-12-31T01:10:13.087Z,28.00
2017-12-31T01:12:40.927Z,33.47
2017-12-31T01:15:08.820Z,35.00
2017-12-31T01:17:36.740Z,48.50
2017-12-31T01:20:04.648Z,43.30
2017-12-31T01:22:32.526Z,19.60
2017-12-31T01:25:00.425Z,25.90
2017-12-31T01:27:28.299Z,49.77
2017-12-31T01:29:56.156Z,41.33
2017-12-31T01:32:24.066Z,34.90
2017-12-31T01:34:51.964Z,41.43
2017-12-31T01:37:19.843Z,43.70
2017-12-31T01:39:47.804Z,38.80
2017-12-31T01:42:15.629Z,25.43
2017-12-31T01:44:43.497Z,33.73
2017-12-31T01:47:11.375Z,28.40
2017-12-31T01:49:39.204Z,28.47
2017-12-31T01:52:07.051Z,42.23
2017-12-31T01:54:34.892Z,40.23
2017-12-31T01:57:02.832Z,37.97
2017-12-31T01:59:30.690Z,35.70
2017-12-31T02:01:58.559Z,33.00
2017-12-31T02:04:26.422Z,50.43
2017-12-31T02:06:54.288Z,44.50
2017-12-31T02:09:22.207Z,18.87
2017-12-31T02:11:50.057Z,29.60
2017-12-31T02:14:17.886Z,29.53
2017-12-31T02:16:45.751Z,33.90
2017-12-31T02:19:13.580Z,22.53
2017-12-31T02:21:41.443Z,35.73
2017-12-31T02:24:09.299Z,31.90
2017-12-31T02:26:37.154Z,26.33
2017-12-31T02:29:04.982Z,33.27
2017-12-31T02:31:32.828Z,31.90
2017-12-31T02:34:00.653Z,34.73
2017-12-31T02:36:28.461Z,39.10
2017-12-31T02:38:56.475Z,28.70
2017-12-31T02:41:24.319Z,34.37
2017-12-31T02:43:52.176Z,21.77
2017-12-31T02:46:20.024Z,25.47
2017-12-31T02:48:47.872Z,25.80
2017-12-31T02:51:15.708Z,34.03
2017-12-31T02:53:43.549Z,24.57
2017-12-31T02:56:11.415Z,31.80
2017-12-31T02:58:40.255Z,28.93
2017-12-31T03:01:08.123Z,28.93
2017-12-31T03:03:35.990Z,41.77
2017-12-31T03:06:03.849Z,29.37
2017-12-31T03:08:31.708Z,23.67
2017-12-31T03:10:59.584Z,42.23
2017-12-31T03:13:27.448Z,55.87
2017-12-31T03:15:55.284Z,24.67
2017-12-31T03:18:23.165Z,32.07
2017-12-31T03:20:51.007Z,29.90
2017-12-31T03:23:18.844Z,24.07
2017-12-31T03:25:46.671Z,34.90
2017-12-31T03:28:14.547Z,28.30
2017-12-31T03:30:42.409Z,39.80
2017-12-31T03:33:10.263Z,32.17
2017-12-31T03:35:38.094Z,24.10
2017-12-31T03:38:05.975Z,28.40
2017-12-31T03:40:33.860Z,45.90
2017-12-31T03:43:01.705Z,45.13
2017-12-31T03:45:29.590Z,39.03
2017-12-31T03:47:57.435Z,38.10
2017-12-31T03:50:25.275Z,45.83
2017-12-31T03:52:53.137Z,31.47
2017-12-31T03:55:20.979Z,38.53
2017-12-31T03:57:48.820Z,34.57
2017-12-31T04:00:16.636Z,35.70
2017-12-31T04:02:44.489Z,23.50
2017-12-31T04:05:12.336Z,22.00
2017-12-31T04:07:40.179Z,34.00
2017-12-31T04:10:08.040Z,42.47
2017-12-31T04:12:35.861Z,29.63
2017-12-31T04:15:03.732Z,31.60
2017-12-31T04:17:31.563Z,33.90
2017-12-31T04:19:59.399Z,36.23
2017-12-31T04:22:27.224Z,45.90
2017-12-31T04:24:55.061Z,35.40
2017-12-31T04:27:22.912Z,35.77
2017-12-31T04:29:50.774Z,26.33
2017-12-31T04:32:18.588Z,36.83
2017-12-31T04:34:46.426Z,34.93
2017-12-31T04:37:14.258Z,43.70
2017-12-31T04:39:42.096Z,24.93
2017-12-31T04:42:09.940Z,19.43
2017-12-31T04:44:37.776Z,32.47
2017-12-31T04:47:05.597Z,19.80
2017-12-31T04:49:33.443Z,41.53
2017-12-31T04:52:01.294Z,19.67
2017-12-31T04:54:29.143Z,40.13
2017-12-31T04:56:56.995Z,31.80
2017-12-31T04:59:24.859Z,42.17
2017-12-31T05:01:52.692Z,37.50
2017-12-31T05:04:20.596Z,31.30
2017-12-31T05:06:48.451Z,28.77
2017-12-31T05:09:16.287Z,30.07
2017-12-31T05:11:44.132Z,44.43
2017-12-31T05:14:11.978Z,34.50
2017-12-31T05:16:39.844Z,35.47
2017-12-31T05:19:07.698Z,31.43
2017-12-31T05:21:35.567Z,28.37
2017-12-31T05:24:03.451Z,35.80
2017-12-31T05:26:31.432Z,40.20
2017-12-31T05:28:59.303Z,27.77
2017-12-31T05:31:27.147Z,38.13
2017-12-31T05:33:55.029Z,43.30
2017-12-31T05:36:22.955Z,26.13
2017-12-31T05:38:50.831Z,55.43
2017-12-31T05:41:18.688Z,32.90
2017-12-31T05:43:46.580Z,39.30
2017-12-31T05:46:14.469Z,20.03
2017-12-31T05:48:42.352Z,48.30
2017-12-31T05:51:10.196Z,50.77
2017-12-31T05:53:38.062Z,35.07
2017-12-31T05:56:05.909Z,44.43
2017-12-31T05:58:33.747Z,32.97
2017-12-31T06:01:01.563Z,39.40
2017-12-31T06:03:29.404Z,44.97
2017-12-31T06:05:57.234Z,19.90
2017-12-31T06:08:25.071Z,35.00
2017-12-31T06:10:52.897Z,32.53
2017-12-31T06:13:20.743Z,35.73
2017-12-31T06:15:48.625Z,30.90
2017-12-31T06:18:16.479Z,29.80
2017-12-31T06:20:44.322Z,32.27
2017-12-31T06:23:12.175Z,30.63
2017-12-31T06:25:40.114Z,37.57
2017-12-31T06:28:07.949Z,27.97
2017-12-31T06:30:35.808Z,49.23
2017-12-31T06:33:03.719Z,38.33
2017-12-31T06:35:31.596Z,24.73
2017-12-31T06:37:59.452Z,31.13
2017-12-31T06:40:27.288Z,43.90
2017-12-31T06:42:55.145Z,39.40
2017-12-31T06:45:23.007Z,40.50
2017-12-31T06:47:50.859Z,35.77
2017-12-31T06:50:18.671Z,43.80
2017-12-31T06:52:46.513Z,34.60
2017-12-31T06:55:14.399Z,28.67
2017-12-31T06:57:42.230Z,44.83
2017-12-31T07:00:10.088Z,32.67
2017-12-31T07:02:37.936Z,35.07
2017-12-31T07:05:05.781Z,27.07
2017-12-31T07:07:33.629Z,32.97
2017-12-31T07:10:01.467Z,26.90
2017-12-31T07:12:29.288Z,51.57
2017-12-31T07:14:57.160Z,34.90
2017-12-31T07:17:24.992Z,33.80
2017-12-31T07:19:52.859Z,48.70
2017-12-31T07:22:20.742Z,26.80
2017-12-31T07:24:48.591Z,33.37
2017-12-31T07:27:16.453Z,51.47
2017-12-31T07:29:44.300Z,47.03
2017-12-31T07:32:12.163Z,38.40
2017-12-31T07:34:39.979Z,33.93
2017-12-31T07:37:07.788Z,73.57
2017-12-31T07:39:35.651Z,47.60
2017-12-31T07:42:03.476Z,47.23
2017-12-31T07:44:31.328Z,42.77
2017-12-31T07:46:59.136Z,45.73
2017-12-31T07:49:26.997Z,34.67
2017-12-31T07:51:54.807Z,35.43
2017-12-31T07:54:22.631Z,41.83
2017-12-31T07:56:50.456Z,48.87
2017-12-31T07:59:18.299Z,29.70
2017-12-31T08:01:46.123Z,45.00
2017-12-31T08:04:14.108Z,43.77
2017-12-31T08:06:41.929Z,40.60
2017-12-31T08:09:09.743Z,37.30
2017-12-31T08:11:37.559Z,46.70
2017-12-31T08:14:05.371Z,40.83
2017-12-31T08:16:33.931Z,51.47
2017-12-31T08:19:01.744Z,50.00
2017-12-31T08:21:29.569Z,54.40
2017-12-31T08:23:57.392Z,60.27
2017-12-31T08:26:25.227Z,49.40
2017-12-31T08:28:53.052Z,43.27
2017-12-31T08:31:20.877Z,44.17
2017-12-31T08:33:48.712Z,43.83
2017-12-31T08:36:16.536Z,56.93
2017-12-31T08:38:44.356Z,55.97
2017-12-31T08:41:12.193Z,56.10
2017-12-31T08:43:40.035Z,54.53
2017-12-31T08:46:07.891Z,69.10
2017-12-31T08:48:35.762Z,59.30
2017-12-31T08:51:03.589Z,58.30
2017-12-31T08:53:31.433Z,74.63
2017-12-31T08:55:59.267Z,44.73
2017-12-31T08:58:27.119Z,66.43
2017-12-31T09:00:55.193Z,52.60
2017-12-31T09:03:23.061Z,60.63
2017-12-31T09:05:50.935Z,56.17
2017-12-31T09:08:18.794Z,80.07
2017-12-31T09:10:46.620Z,49.37
2017-12-31T09:13:14.460Z,42.60
2017-12-31T09:15:42.868Z,60.57
2017-12-31T09:18:10.705Z,46.80
2017-12-31T09:20:38.524Z,39.33
2017-12-31T09:23:06.350Z,46.73
2017-12-31T09:25:34.182Z,62.03
2017-12-31T09:28:02.040Z,34.27
2017-12-31T09:30:29.887Z,48.93
2017-12-31T09:32:57.743Z,40.30
2017-12-31T09:35:25.611Z,41.43
2017-12-31T09:37:53.448Z,46.77
2017-12-31T09:40:21.299Z,54.50
2017-12-31T09:42:49.144Z,36.80
2017-12-31T09:45:16.978Z,38.33
2017-12-31T09:47:44.831Z,40.50
2017-12-31T09:50:12.653Z,28.20
2017-12-31T09:52:40.497Z,41.73
2017-12-31T09:55:08.304Z,49.30
2017-12-31T09:57:36.172Z,36.60
2017-12-31T10:00:04.013Z,35.03
2017-12-31T10:02:31.861Z,32.87
2017-12-31T10:04:59.703Z,42.67
2017-12-31T10:07:27.568Z,49.97
2017-12-31T10:09:55.500Z,34.37
2017-12-31T10:12:23.341Z,47.37
2017-12-31T10:14:51.190Z,26.63
2017-12-31T10:17:19.024Z,57.83
2017-12-31T10:19:46.861Z,40.23
2017-12-31T10:22:14.696Z,36.93
2017-12-31T10:24:42.548Z,37.13
2017-12-31T10:27:10.360Z,29.73
2017-12-31T10:29:38.197Z,34.90
2017-12-31T10:32:06.032Z,33.13
2017-12-31T10:34:33.872Z,19.33
2017-12-31T10:37:01.696Z,11.27
2017-12-31T10:39:29.548Z,14.70
2017-12-31T10:41:57.416Z,9.37
2017-12-31T10:44:25.252Z,9.20
2017-12-31T10:46:53.100Z,13.03
2017-12-31T10:49:20.969Z,10.17
2017-12-31T10:51:48.815Z,8.00
2017-12-31T10:54:16.668Z,10.13
2017-12-31T10:56:44.503Z,9.97
2017-12-31T10:59:12.393Z,8.57
2017-12-31T11:01:40.236Z,8.40
2017-12-31T11:04:08.128Z,7.10
2017-12-31T11:06:35.948Z,10.40
2017-12-31T11:09:03.793Z,13.20
2017-12-31T11:11:31.657Z,10.30
2017-12-31T11:13:59.508Z,11.30
2017-12-31T11:16:27.351Z,9.27
2017-12-31T11:18:55.251Z,9.60
2017-12-31T11:21:23.101Z,5.80
2017-12-31T11:23:50.949Z,9.80
2017-12-31T11:26:18.804Z,9.67
2017-12-31T11:28:46.616Z,7.67
2017-12-31T11:31:14.467Z,12.03
2017-12-31T11:33:42.291Z,6.40
2017-12-31T11:36:10.134Z,5.97
2017-12-31T11:38:37.942Z,6.17
2017-12-31T11:41:05.780Z,7.50
2017-12-31T11:43:33.604Z,9.90
2017-12-31T11:46:01.517Z,9.70
2017-12-31T11:48:29.381Z,11.10
2017-12-31T11:50:57.255Z,11.10
2017-12-31T11:53:25.096Z,16.70
2017-12-31T11:55:53.012Z,7.17
2017-12-31T11:58:20.886Z,11.60
2017-12-31T12:00:48.719Z,8.30
2017-12-31T12:03:16.541Z,6.50
2017-12-31T12:05:44.416Z,12.10
2017-12-31T12:08:12.257Z,17.53
2017-12-31T12:10:40.077Z,11.10
2017-12-31T12:13:07.889Z,13.50
2017-12-31T12:15:35.736Z,8.87
2017-12-31T12:18:03.569Z,8.60
2017-12-31T12:20:31.404Z,10.77
2017-12-31T12:22:59.237Z,18.07
2017-12-31T12:25:27.105Z,14.13
2017-12-31T12:27:54.922Z,9.83
2017-12-31T12:30:22.740Z,19.57
2017-12-31T12:32:50.570Z,16.57
2017-12-31T12:35:18.450Z,28.30
2017-12-31T12:37:46.278Z,14.47
2017-12-31T12:40:14.104Z,22.97
2017-12-31T12:42:41.929Z,13.33
2017-12-31T12:45:09.765Z,21.20
2017-12-31T12:47:37.604Z,8.60
2017-12-31T12:50:05.443Z,14.00
2017-12-31T12:52:33.284Z,19.63
2017-12-31T12:55:01.097Z,11.37
2017-12-31T12:57:28.920Z,20.00
2017-12-31T12:59:56.808Z,14.50
2017-12-31T13:02:24.691Z,9.47
2017-12-31T13:04:52.544Z,20.60
2017-12-31T13:07:20.387Z,16.77
2017-12-31T13:09:48.231Z,13.13
2017-12-31T13:12:16.100Z,18.93
2017-12-31T13:14:43.937Z,14.53
2017-12-31T13:17:11.817Z,19.47
2017-12-31T13:19:39.616Z,13.53
2017-12-31T13:22:07.448Z,14.67
2017-12-31T13:24:35.293Z,19.27
2017-12-31T13:27:03.151Z,15.80
2017-12-31T13:29:30.971Z,13.23
2017-12-31T13:31:58.804Z,14.77
2017-12-31T13:34:26.645Z,13.47
2017-12-31T13:36:54.479Z,15.37
2017-12-31T13:39:22.318Z,20.63
2017-12-31T13:41:50.164Z,19.00
2017-12-31T13:44:18.052Z,19.00
2017-12-31T13:46:45.904Z,16.90
2017-12-31T13:49:13.769Z,13.13
2017-12-31T13:51:41.574Z,5.60
2017-12-31T13:54:09.420Z,20.00
2017-12-31T13:56:37.273Z,8.37
2017-12-31T13:59:05.156Z,15.37
2017-12-31T14:01:33.136Z,10.13
2017-12-31T14:04:00.952Z,20.83
2017-12-31T14:06:28.808Z,19.73
2017-12-31T14:08:56.648Z,12.67
2017-12-31T14:11:24.495Z,15.17
2017-12-31T14:13:52.324Z,21.60
2017-12-31T14:16:20.143Z,17.70
2017-12-31T14:18:47.973Z,23.37
2017-12-31T14:21:15.818Z,21.97
2017-12-31T14:23:43.657Z,25.00
2017-12-31T14:26:11.533Z,23.47
2017-12-31T14:28:39.401Z,14.37
2017-12-31T14:31:07.220Z,13.90
2017-12-31T14:33:35.059Z,16.57
2017-12-31T14:36:02.900Z,17.43
2017-12-31T14:38:30.747Z,11.00
2017-12-31T14:40:58.579Z,22.20
2017-12-31T14:43:26.424Z,28.17
2017-12-31T14:45:54.311Z,18.00
2017-12-31T14:48:22.159Z,18.17
2017-12-31T14:50:49.990Z,28.47
2017-12-31T14:53:17.893Z,15.67
2017-12-31T14:55:45.725Z,23.50
2017-12-31T14:58:13.548Z,11.57
2017-12-31T15:00:41.372Z,18.10
2017-12-31T15:03:09.196Z,16.93
2017-12-31T15:05:37.087Z,28.30
2017-12-31T15:08:04.922Z,13.97
2017-12-31T15:10:32.781Z,13.67
2017-12-31T15:13:00.634Z,22.60
2017-12-31T15:15:28.463Z,22.80
2017-12-31T15:17:56.331Z,16.23
2017-12-31T15:20:24.180Z,24.27
2017-12-31T15:22:52.076Z,21.63
2017-12-31T15:25:19.990Z,19.20
2017-12-31T15:27:47.826Z,26.97
2017-12-31T15:30:15.705Z,21.30
2017-12-31T15:32:43.585Z,21.30
2017-12-31T15:35:11.453Z,33.80
2017-12-31T15:37:39.289Z,26.13
2017-12-31T15:40:07.123Z,24.03
2017-12-31T15:42:34.949Z,26.17
2017-12-31T15:45:02.784Z,27.47
2017-12-31T15:47:30.643Z,31.67
2017-12-31T15:49:58.483Z,32.70
2017-12-31T15:52:26.307Z,39.73
2017-12-31T15:54:54.144Z,30.20
2017-12-31T15:57:21.980Z,32.53
2017-12-31T15:59:49.823Z,27.13
2017-12-31T16:02:17.635Z,32.63
2017-12-31T16:04:45.477Z,32.00
2017-12-31T16:07:13.296Z,32.60
2017-12-31T16:09:41.109Z,35.90
2017-12-31T16:12:08.949Z,44.10
2017-12-31T16:14:36.800Z,24.20
2017-12-31T16:17:04.628Z,31.63
2017-12-31T16:19:32.443Z,31.20
2017-12-31T16:22:00.276Z,21.50
2017-12-31T16:24:28.088Z,26.87
2017-12-31T16:26:55.910Z,29.67
2017-12-31T16:29:23.724Z,31.90
2017-12-31T16:31:51.540Z,31.00
2017-12-31T16:34:19.340Z,31.07
2017-12-31T16:36:47.178Z,31.83
2017-12-31T16:39:14.996Z,84.97
2017-12-31T16:41:42.824Z,41.50
2017-12-31T16:44:10.643Z,38.73
2017-12-31T16:46:38.473Z,46.30
2017-12-31T16:49:06.291Z,46.67
2017-12-31T16:51:34.103Z,48.00
2017-12-31T16:54:01.932Z,33.33
2017-12-31T16:56:29.766Z,47.80
2017-12-31T16:58:57.623Z,51.50
2017-12-31T17:01:25.471Z,45.93
2017-12-31T17:03:53.347Z,71.33
2017-12-31T17:06:21.187Z,77.60
2017-12-31T17:08:49.145Z,46.90
2017-12-31T17:11:16.913Z,50.50
2017-12-31T17:13:44.748Z,83.17
2017-12-31T17:16:12.567Z,99.43
2017-12-31T17:18:40.404Z,72.87
2017-12-31T17:21:08.256Z,154.87
2017-12-31T17:23:36.125Z,120.33
2017-12-31T17:26:03.980Z,112.90
2017-12-31T17:28:31.826Z,189.03
2017-12-31T17:30:59.661Z,54.07
2017-12-31T17:33:27.496Z,49.63
2017-12-31T17:35:55.311Z,65.10
2017-12-31T17:38:23.172Z,41.80
2017-12-31T17:40:51.008Z,44.60
2017-12-31T17:43:21.012Z,49.80
2017-12-31T17:45:48.859Z,57.87
2017-12-31T17:48:16.924Z,42.57
2017-12-31T17:50:44.788Z,32.17
2017-12-31T17:53:12.627Z,27.77
2017-12-31T17:55:40.495Z,35.07
2017-12-31T17:58:08.348Z,42.80
2017-12-31T18:00:36.188Z,45.27
2017-12-31T18:03:04.030Z,47.47
2017-12-31T18:05:31.857Z,48.70
2017-12-31T18:10:51.716Z,32.23
2017-12-31T18:13:19.562Z,41.27
2017-12-31T18:15:47.404Z,40.97
2017-12-31T18:18:15.236Z,98.53
2017-12-31T18:20:43.152Z,107.07
2017-12-31T18:23:10.985Z,65.53
2017-12-31T18:25:38.862Z,74.37
2017-12-31T18:28:06.699Z,83.70
2017-12-31T18:30:34.629Z,68.70
2017-12-31T18:33:02.476Z,64.27
2017-12-31T18:35:30.343Z,66.20
2017-12-31T18:37:58.234Z,65.53
2017-12-31T18:40:26.063Z,60.70
2017-12-31T18:42:53.936Z,73.10
2017-12-31T18:45:22.824Z,67.83
2017-12-31T18:47:50.650Z,53.70
2017-12-31T18:50:18.586Z,81.27
2017-12-31T18:52:46.447Z,110.77
2017-12-31T18:55:14.282Z,117.63
2017-12-31T18:57:42.784Z,126.17
2017-12-31T19:00:10.640Z,92.30
2017-12-31T19:02:38.488Z,95.63
2017-12-31T19:05:06.389Z,93.73
2017-12-31T19:07:34.242Z,124.70
2017-12-31T19:10:02.437Z,90.93
2017-12-31T19:12:30.344Z,91.53
2017-12-31T19:14:58.245Z,101.00
2017-12-31T19:17:26.113Z,96.57
2017-12-31T19:19:54.010Z,92.80
2017-12-31T19:22:21.888Z,86.60
2017-12-31T19:24:49.733Z,92.33
2017-12-31T19:27:19.548Z,92.23
2017-12-31T19:29:47.411Z,112.10
2017-12-31T19:32:15.259Z,145.93
2017-12-31T19:34:43.100Z,135.13
2017-12-31T19:37:10.986Z,106.40
2017-12-31T19:39:38.837Z,122.83
2017-12-31T19:42:06.707Z,129.70
2017-12-31T19:44:34.660Z,110.03
2017-12-31T19:47:02.593Z,111.63
2017-12-31T19:49:30.439Z,118.00
2017-12-31T19:51:58.284Z,178.83
2017-12-31T19:54:26.135Z,247.80
2017-12-31T19:56:53.997Z,259.87
2017-12-31T19:59:21.881Z,208.50
2017-12-31T20:01:49.751Z,223.57
2017-12-31T20:04:17.608Z,160.27
2017-12-31T20:06:45.502Z,151.93
2017-12-31T20:09:13.375Z,181.00
2017-12-31T20:11:41.239Z,174.90
2017-12-31T20:14:09.102Z,171.30
2017-12-31T20:16:36.952Z,161.20
2017-12-31T20:19:04.815Z,148.10
2017-12-31T20:21:32.689Z,171.70
2017-12-31T20:24:00.562Z,157.63
2017-12-31T20:26:29.251Z,190.47
2017-12-31T20:28:57.119Z,181.77
2017-12-31T20:31:24.993Z,187.20
2017-12-31T20:33:52.851Z,229.37
2017-12-31T20:36:20.679Z,181.20
2017-12-31T20:38:56.160Z,171.93
2017-12-31T20:41:24.225Z,124.60
2017-12-31T20:43:52.665Z,152.87
2017-12-31T20:46:20.539Z,104.53
2017-12-31T20:48:48.478Z,115.93
2017-12-31T20:51:16.308Z,122.83
2017-12-31T20:53:44.152Z,108.00
2017-12-31T20:56:11.972Z,142.70
2017-12-31T20:58:39.832Z,148.73
2017-12-31T21:01:07.672Z,134.60
2017-12-31T21:03:35.551Z,116.67
2017-12-31T21:06:03.391Z,130.97
2017-12-31T21:08:31.258Z,140.77
2017-12-31T21:10:59.088Z,185.63
2017-12-31T21:13:26.932Z,145.97
2017-12-31T21:15:54.768Z,170.87
2017-12-31T21:18:22.621Z,189.83
2017-12-31T21:20:50.466Z,221.13
2017-12-31T21:23:18.322Z,181.73
2017-12-31T21:25:46.157Z,168.37
2017-12-31T21:28:21.177Z,170.83
2017-12-31T21:30:49.048Z,136.53
2017-12-31T21:33:16.882Z,117.80
2017-12-31T21:35:44.727Z,135.37
2017-12-31T21:38:12.557Z,122.10
2017-12-31T21:40:40.437Z,115.97
2017-12-31T21:43:08.243Z,142.43
2017-12-31T21:45:36.108Z,74.00
2017-12-31T21:48:03.986Z,71.87
2017-12-31T21:50:31.840Z,57.47
2017-12-31T21:52:59.701Z,76.23
2017-12-31T21:55:27.532Z,72.03
2017-12-31T21:57:55.335Z,83.77
2017-12-31T22:00:23.200Z,104.60
2017-12-31T22:02:51.039Z,90.33
2017-12-31T22:05:18.868Z,67.60
2017-12-31T22:07:46.690Z,67.80
2017-12-31T22:10:14.519Z,111.73
2017-12-31T22:12:42.406Z,107.10
2017-12-31T22:15:10.452Z,74.43
2017-12-31T22:17:38.272Z,92.60
2017-12-31T22:20:06.106Z,122.67
2017-12-31T22:22:33.931Z,87.53
2017-12-31T22:25:01.793Z,96.03
2017-12-31T22:27:29.634Z,105.00
2017-12-31T22:29:57.480Z,81.47
2017-12-31T22:32:25.324Z,71.93
2017-12-31T22:34:53.188Z,62.90
2017-12-31T22:37:21.468Z,67.43
2017-12-31T22:39:49.281Z,63.20
2017-12-31T22:42:17.127Z,75.83
2017-12-31T22:44:44.939Z,76.27
2017-12-31T22:47:12.773Z,90.57
2017-12-31T22:49:40.600Z,84.63
2017-12-31T22:52:08.435Z,81.87
2017-12-31T22:54:36.274Z,84.63
2017-12-31T22:57:04.141Z,135.50
2017-12-31T22:59:31.972Z,747.73
2017-12-31T23:01:59.826Z,518.53
2017-12-31T23:04:27.666Z,720.07
2017-12-31T23:06:55.512Z,1140.60
2017-12-31T23:09:23.355Z,1409.20
2017-12-31T23:11:51.203Z,1375.27
2017-12-31T23:14:19.055Z,1565.63
2017-12-31T23:16:46.934Z,1138.30
2017-12-31T23:19:14.755Z,1472.83
2017-12-31T23:21:42.663Z,1493.60
2017-12-31T23:24:10.516Z,1377.57
2017-12-31T23:26:39.155Z,1600.60
2017-12-31T23:29:07.033Z,1661.37
2017-12-31T23:31:34.865Z,1733.57
2017-12-31T23:34:02.705Z,865.37
2017-12-31T23:36:30.580Z,1197.10
2017-12-31T23:38:58.427Z,1084.57
2017-12-31T23:41:26.331Z,746.47
2017-12-31T23:43:54.196Z,714.57
2017-12-31T23:46:22.026Z,541.83
2017-12-31T23:48:49.901Z,588.20
2017-12-31T23:51:17.782Z,516.47
2017-12-31T23:53:45.625Z,511.60
2017-12-31T23:56:13.472Z,462.27
2017-12-31T23:58:41.295Z,309.10
